createdAt,value
2023-01-27T00:00:52.147Z,20.70
2023-01-27T00:03:20.455Z,20.70
2023-01-27T00:05:48.028Z,20.70
2023-01-27T00:08:15.692Z,20.70
2023-01-27T00:10:43.335Z,20.70
2023-01-27T00:13:32.190Z,20.70
2023-01-27T00:15:59.645Z,20.70
2023-01-27T00:18:26.979Z,20.70
2023-01-27T00:21:13.952Z,20.70
2023-01-27T00:24:00.934Z,20.70
2023-01-27T00:26:28.040Z,20.70
2023-01-27T00:28:55.104Z,20.60
2023-01-27T00:31:42.110Z,20.70
2023-01-27T00:34:09.605Z,20.60
2023-01-27T00:36:39.076Z,20.70
2023-01-27T00:39:07.902Z,20.70
2023-01-27T00:41:35.296Z,20.60
2023-01-27T00:44:02.798Z,20.60
2023-01-27T00:46:30.216Z,20.60
2023-01-27T00:48:57.288Z,20.60
2023-01-27T00:51:24.765Z,20.60
2023-01-27T00:53:51.890Z,20.60
2023-01-27T00:56:19.462Z,20.60
2023-01-27T00:58:46.826Z,20.60
2023-01-27T01:01:16.078Z,20.60
2023-01-27T01:03:44.092Z,20.60
2023-01-27T01:06:13.893Z,20.60
2023-01-27T01:08:41.323Z,20.60
2023-01-27T01:11:11.085Z,20.60
2023-01-27T01:13:38.179Z,20.60
2023-01-27T01:16:11.772Z,20.60
2023-01-27T01:18:39.326Z,20.60
2023-01-27T01:21:07.197Z,20.60
2023-01-27T01:23:35.311Z,20.60
2023-01-27T01:26:02.377Z,20.60
2023-01-27T01:28:29.530Z,20.60
2023-01-27T01:30:56.747Z,20.60
2023-01-27T01:33:23.896Z,20.60
2023-01-27T01:35:50.979Z,20.60
2023-01-27T01:38:18.107Z,20.60
2023-01-27T01:40:45.657Z,20.60
2023-01-27T01:43:16.996Z,20.60
2023-01-27T01:45:54.681Z,20.60
2023-01-27T01:48:36.550Z,20.60
2023-01-27T01:51:21.572Z,20.60
2023-01-27T01:53:57.735Z,20.60
2023-01-27T01:56:31.185Z,20.60
2023-01-27T01:59:04.138Z,20.60
2023-01-27T02:01:31.325Z,20.60
2023-01-27T02:04:04.196Z,20.50
2023-01-27T02:06:40.132Z,20.50
2023-01-27T02:09:07.898Z,20.60
2023-01-27T02:11:34.960Z,20.50
2023-01-27T02:14:03.235Z,20.50
2023-01-27T02:16:31.387Z,20.50
2023-01-27T02:18:58.569Z,20.50
2023-01-27T02:21:26.265Z,20.50
2023-01-27T02:24:11.015Z,20.50
2023-01-27T02:26:43.578Z,20.50
2023-01-27T02:29:13.580Z,20.50
2023-01-27T02:31:41.061Z,20.50
2023-01-27T02:34:18.372Z,20.50
2023-01-27T02:36:51.316Z,20.50
2023-01-27T02:39:22.337Z,20.50
2023-01-27T02:41:53.436Z,20.50
2023-01-27T02:44:20.566Z,20.50
2023-01-27T02:46:47.642Z,20.40
2023-01-27T02:49:15.369Z,20.50
2023-01-27T02:51:42.761Z,20.50
2023-01-27T02:54:09.878Z,20.40
2023-01-27T02:56:36.922Z,20.40
2023-01-27T02:59:04.017Z,20.40
2023-01-27T03:01:32.830Z,20.40
2023-01-27T03:04:00.265Z,20.40
2023-01-27T03:06:27.452Z,20.40
2023-01-27T03:08:54.635Z,20.40
2023-01-27T03:11:41.552Z,20.40
2023-01-27T03:14:09.271Z,20.40
2023-01-27T03:16:56.507Z,20.40
2023-01-27T03:19:23.623Z,20.40
2023-01-27T03:21:51.362Z,20.40
2023-01-27T03:24:18.814Z,20.40
2023-01-27T03:26:46.501Z,20.40
2023-01-27T03:29:33.466Z,20.40
2023-01-27T03:32:00.498Z,20.40
2023-01-27T03:34:27.581Z,20.40
2023-01-27T03:37:14.507Z,20.40
2023-01-27T03:40:01.577Z,20.40
2023-01-27T03:42:48.490Z,20.40
2023-01-27T03:45:35.514Z,20.40
2023-01-27T03:48:02.564Z,20.40
2023-01-27T03:50:38.055Z,20.40
2023-01-27T03:53:06.079Z,20.40
2023-01-27T03:55:34.853Z,20.40
2023-01-27T03:58:14.804Z,20.40
2023-01-27T04:00:41.954Z,20.40
2023-01-27T04:03:28.913Z,20.40
2023-01-27T04:06:16.023Z,20.40
2023-01-27T04:08:43.797Z,20.40
2023-01-27T04:11:31.917Z,20.30
2023-01-27T04:14:02.230Z,20.40
2023-01-27T04:16:30.393Z,20.30
2023-01-27T04:18:58.088Z,20.30
2023-01-27T04:21:25.931Z,20.40
2023-01-27T04:23:53.945Z,20.30
2023-01-27T04:26:21.583Z,20.40
2023-01-27T04:28:49.557Z,20.30
2023-01-27T04:31:17.734Z,20.30
2023-01-27T04:33:45.609Z,20.30
2023-01-27T04:36:13.159Z,20.30
2023-01-27T04:38:40.267Z,20.30
2023-01-27T04:41:07.444Z,20.30
2023-01-27T04:43:34.574Z,20.30
2023-01-27T04:46:01.842Z,20.30
2023-01-27T04:48:29.205Z,20.30
2023-01-27T04:50:56.286Z,20.30
2023-01-27T04:53:23.458Z,20.30
2023-01-27T04:55:50.752Z,20.30
2023-01-27T04:58:18.513Z,20.30
2023-01-27T05:00:45.956Z,20.30
2023-01-27T05:03:13.163Z,20.30
2023-01-27T05:05:40.377Z,20.30
2023-01-27T05:08:10.403Z,20.30
2023-01-27T05:10:37.935Z,20.30
2023-01-27T05:13:05.075Z,20.30
2023-01-27T05:15:32.243Z,20.30
2023-01-27T05:17:59.421Z,20.30
2023-01-27T05:20:26.546Z,20.30
2023-01-27T05:23:13.483Z,20.30
2023-01-27T05:25:45.213Z,20.30
2023-01-27T05:28:12.564Z,20.30
2023-01-27T05:30:39.816Z,20.30
2023-01-27T05:33:08.568Z,20.30
2023-01-27T05:35:35.696Z,20.20
2023-01-27T05:38:02.769Z,20.20
2023-01-27T05:40:30.003Z,20.20
2023-01-27T05:42:57.207Z,20.20
2023-01-27T05:45:24.283Z,20.20
2023-01-27T05:47:51.781Z,20.20
2023-01-27T05:50:19.096Z,20.20
2023-01-27T05:52:46.633Z,20.20
2023-01-27T05:55:14.054Z,20.20
2023-01-27T05:57:41.413Z,20.20
2023-01-27T06:00:09.205Z,20.20
2023-01-27T06:02:36.302Z,20.30
2023-01-27T06:05:03.387Z,20.30
2023-01-27T06:07:30.454Z,20.30
2023-01-27T06:09:57.730Z,20.30
2023-01-27T06:12:24.801Z,20.30
2023-01-27T06:14:51.932Z,20.30
2023-01-27T06:17:19.187Z,20.30
2023-01-27T06:19:46.257Z,20.30
2023-01-27T06:22:13.452Z,20.40
2023-01-27T06:24:40.548Z,20.40
2023-01-27T06:27:07.656Z,20.40
2023-01-27T06:29:34.836Z,20.40
2023-01-27T06:32:02.101Z,20.40
2023-01-27T06:34:30.300Z,20.50
2023-01-27T06:36:57.437Z,20.50
2023-01-27T06:39:24.507Z,20.50
2023-01-27T06:41:51.634Z,20.60
2023-01-27T06:44:18.744Z,20.60
2023-01-27T06:46:46.807Z,20.70
2023-01-27T06:49:15.459Z,20.70
2023-01-27T06:51:42.732Z,20.70
2023-01-27T06:54:11.169Z,20.80
2023-01-27T06:56:38.225Z,20.80
2023-01-27T06:59:06.230Z,20.80
2023-01-27T07:01:33.309Z,20.90
2023-01-27T07:04:00.570Z,20.90
2023-01-27T07:06:27.810Z,20.90
2023-01-27T07:08:55.652Z,21.00
2023-01-27T07:11:24.179Z,21.00
2023-01-27T07:13:51.524Z,21.10
2023-01-27T07:16:18.698Z,21.10
2023-01-27T07:18:45.765Z,21.10
2023-01-27T07:21:13.333Z,21.20
2023-01-27T07:23:40.945Z,21.20
2023-01-27T07:26:23.275Z,21.30
2023-01-27T07:28:52.112Z,21.30
2023-01-27T07:31:19.488Z,21.30
2023-01-27T07:33:46.732Z,21.40
2023-01-27T07:36:13.991Z,21.40
2023-01-27T07:38:41.211Z,21.50
2023-01-27T07:41:08.379Z,21.50
2023-01-27T07:43:36.099Z,21.60
2023-01-27T07:46:03.538Z,21.60
2023-01-27T07:48:30.582Z,21.60
2023-01-27T07:50:58.187Z,21.60
2023-01-27T07:53:25.839Z,21.70
2023-01-27T07:55:53.672Z,21.70
2023-01-27T07:58:20.812Z,21.80
2023-01-27T08:00:47.936Z,21.80
2023-01-27T08:03:23.710Z,21.80
2023-01-27T08:05:51.477Z,21.90
2023-01-27T08:08:19.327Z,21.90
2023-01-27T08:10:49.394Z,22.00
2023-01-27T08:13:16.641Z,22.00
2023-01-27T08:15:43.890Z,22.10
2023-01-27T08:18:12.046Z,22.10
2023-01-27T08:20:39.698Z,22.20
2023-01-27T08:23:06.807Z,22.20
2023-01-27T08:25:33.926Z,22.20
2023-01-27T08:28:01.241Z,22.20
2023-01-27T08:30:29.294Z,22.30
2023-01-27T08:32:56.421Z,22.30
2023-01-27T08:35:23.533Z,22.40
2023-01-27T08:37:51.702Z,22.40
2023-01-27T08:40:19.299Z,22.40
2023-01-27T08:42:46.873Z,22.50
2023-01-27T08:45:14.193Z,22.50
2023-01-27T08:47:41.418Z,22.50
2023-01-27T08:50:09.867Z,22.50
2023-01-27T08:52:37.008Z,22.50
2023-01-27T08:55:04.481Z,22.50
2023-01-27T08:57:32.745Z,22.60
2023-01-27T09:00:00.362Z,22.60
2023-01-27T09:02:27.472Z,22.60
2023-01-27T09:04:54.575Z,22.60
2023-01-27T09:07:22.479Z,22.70
2023-01-27T09:09:51.349Z,22.70
2023-01-27T09:12:23.093Z,22.70
2023-01-27T09:14:50.253Z,22.70
2023-01-27T09:17:19.784Z,22.70
2023-01-27T09:19:47.572Z,22.80
2023-01-27T09:22:14.688Z,22.80
2023-01-27T09:24:41.758Z,22.80
2023-01-27T09:27:08.833Z,22.80
2023-01-27T09:29:36.875Z,22.90
2023-01-27T09:32:04.490Z,22.90
2023-01-27T09:34:31.635Z,23.00
2023-01-27T09:37:06.981Z,22.90
2023-01-27T09:39:41.610Z,23.00
2023-01-27T09:42:45.749Z,23.00
2023-01-27T09:45:31.820Z,23.10
2023-01-27T09:48:33.709Z,23.10
2023-01-27T09:51:26.407Z,23.10
2023-01-27T09:54:15.503Z,23.10
2023-01-27T09:57:12.851Z,23.20
2023-01-27T10:00:03.879Z,23.20
2023-01-27T10:03:03.923Z,23.20
2023-01-27T10:05:58.354Z,23.30
2023-01-27T10:08:58.490Z,23.30
2023-01-27T10:11:54.829Z,23.30
2023-01-27T10:14:59.156Z,23.30
2023-01-27T10:17:39.980Z,23.40
2023-01-27T10:20:39.607Z,23.40
2023-01-27T10:23:37.840Z,23.40
2023-01-27T10:26:32.012Z,23.40
2023-01-27T10:29:09.416Z,23.40
2023-01-27T10:32:01.834Z,23.40
2023-01-27T10:34:35.401Z,23.50
2023-01-27T10:37:37.291Z,23.50
2023-01-27T10:40:44.081Z,23.50
2023-01-27T10:43:39.892Z,23.50
2023-01-27T10:46:24.511Z,23.60
2023-01-27T10:49:07.833Z,23.50
2023-01-27T10:51:50.300Z,23.40
2023-01-27T10:54:34.533Z,23.40
2023-01-27T10:57:12.200Z,23.40
2023-01-27T11:00:21.941Z,23.40
2023-01-27T11:03:13.754Z,23.50
2023-01-27T11:05:47.431Z,23.50
2023-01-27T11:08:22.425Z,23.60
2023-01-27T11:11:14.143Z,23.60
2023-01-27T11:13:41.952Z,23.60
2023-01-27T11:16:19.811Z,23.50
2023-01-27T11:18:55.320Z,23.60
2023-01-27T11:21:28.279Z,23.60
2023-01-27T11:23:57.270Z,23.50
2023-01-27T11:26:48.791Z,23.50
2023-01-27T11:29:41.088Z,23.40
2023-01-27T11:32:19.034Z,23.40
2023-01-27T11:35:09.831Z,23.40
2023-01-27T11:37:49.547Z,23.40
2023-01-27T11:40:21.913Z,23.40
2023-01-27T11:42:51.635Z,23.30
2023-01-27T11:45:21.517Z,23.40
2023-01-27T11:47:55.160Z,23.40
2023-01-27T11:50:24.949Z,23.40
2023-01-27T11:53:03.680Z,23.40
2023-01-27T11:55:41.664Z,23.40
2023-01-27T11:58:26.018Z,23.40
2023-01-27T12:01:15.863Z,23.40
2023-01-27T12:04:19.580Z,23.40
2023-01-27T12:06:54.142Z,23.40
2023-01-27T12:09:36.657Z,23.40
2023-01-27T12:12:25.187Z,23.40
2023-01-27T12:14:58.181Z,23.40
2023-01-27T12:17:34.093Z,23.50
2023-01-27T12:20:26.919Z,23.50
2023-01-27T12:22:56.946Z,23.60
2023-01-27T12:25:28.360Z,23.60
2023-01-27T12:28:01.893Z,23.60
2023-01-27T12:30:39.248Z,23.70
2023-01-27T12:33:19.905Z,23.70
2023-01-27T12:35:49.738Z,23.70
2023-01-27T12:38:24.413Z,23.70
2023-01-27T12:41:00.162Z,23.70
2023-01-27T12:43:27.830Z,23.70
2023-01-27T12:46:20.231Z,23.60
2023-01-27T12:48:50.627Z,23.60
2023-01-27T12:51:23.671Z,23.60
2023-01-27T12:54:11.494Z,23.60
2023-01-27T12:56:39.644Z,23.60
2023-01-27T12:59:15.680Z,23.60
2023-01-27T13:01:45.183Z,23.60
2023-01-27T13:04:19.366Z,23.70
2023-01-27T13:06:54.491Z,23.70
2023-01-27T13:09:39.632Z,23.70
2023-01-27T13:12:30.845Z,23.70
2023-01-27T13:15:06.254Z,23.70
2023-01-27T13:17:50.536Z,23.60
2023-01-27T13:20:43.110Z,23.60
2023-01-27T13:23:22.213Z,23.60
2023-01-27T13:26:14.548Z,23.50
2023-01-27T13:29:16.224Z,23.40
2023-01-27T13:32:03.637Z,23.40
2023-01-27T13:34:45.951Z,23.30
2023-01-27T13:37:23.838Z,23.30
2023-01-27T13:40:17.273Z,23.20
2023-01-27T13:43:10.002Z,23.20
2023-01-27T13:46:07.024Z,23.10
2023-01-27T13:48:48.851Z,23.10
2023-01-27T13:51:22.261Z,23.10
2023-01-27T13:53:57.312Z,23.00
2023-01-27T13:56:50.273Z,23.00
2023-01-27T13:59:43.151Z,23.00
2023-01-27T14:02:39.206Z,23.00
2023-01-27T14:05:28.729Z,22.90
2023-01-27T14:08:21.880Z,22.90
2023-01-27T14:11:29.456Z,22.90
2023-01-27T14:14:17.903Z,22.80
2023-01-27T14:17:26.710Z,22.90
2023-01-27T14:20:18.684Z,22.80
2023-01-27T14:23:11.652Z,22.80
2023-01-27T14:26:07.936Z,22.80
2023-01-27T14:29:14.456Z,22.80
2023-01-27T14:31:58.296Z,22.80
2023-01-27T14:34:52.947Z,22.70
2023-01-27T14:37:35.779Z,22.70
2023-01-27T14:40:21.835Z,22.70
2023-01-27T14:43:28.584Z,22.70
2023-01-27T14:46:31.187Z,22.60
2023-01-27T14:49:24.168Z,22.60
2023-01-27T14:52:14.326Z,22.60
2023-01-27T14:55:21.110Z,22.60
2023-01-27T14:58:22.165Z,22.60
2023-01-27T15:01:26.672Z,22.50
2023-01-27T15:04:23.663Z,22.50
2023-01-27T15:07:15.102Z,22.50
2023-01-27T15:09:58.000Z,22.50
2023-01-27T15:13:03.315Z,22.50
2023-01-27T15:15:55.168Z,22.60
2023-01-27T15:18:51.493Z,22.60
2023-01-27T15:21:50.038Z,22.50
2023-01-27T15:24:33.818Z,22.50
2023-01-27T15:27:01.714Z,22.50
2023-01-27T15:29:31.411Z,22.50
2023-01-27T15:32:28.259Z,22.40
2023-01-27T15:35:36.251Z,22.40
2023-01-27T15:38:32.814Z,22.30
2023-01-27T15:41:04.962Z,22.30
2023-01-27T15:43:38.074Z,22.20
2023-01-27T15:46:30.348Z,22.20
2023-01-27T15:49:00.842Z,22.20
2023-01-27T15:51:31.856Z,22.10
2023-01-27T15:54:00.186Z,22.10
2023-01-27T15:56:53.223Z,22.10
2023-01-27T15:59:30.562Z,22.00
2023-01-27T16:02:19.063Z,22.00
2023-01-27T16:04:54.812Z,22.00
2023-01-27T16:07:30.480Z,21.90
2023-01-27T16:09:59.912Z,21.90
2023-01-27T16:12:40.842Z,21.90
2023-01-27T16:15:32.666Z,21.90
2023-01-27T16:18:22.091Z,21.80
2023-01-27T16:21:07.063Z,21.80
2023-01-27T16:23:55.323Z,21.80
2023-01-27T16:26:34.732Z,21.80
2023-01-27T16:29:28.780Z,21.80
2023-01-27T16:32:01.473Z,21.80
2023-01-27T16:34:46.922Z,21.70
2023-01-27T16:37:27.181Z,21.70
2023-01-27T16:40:16.125Z,21.70
2023-01-27T16:42:57.714Z,21.70
2023-01-27T16:45:28.590Z,21.60
2023-01-27T16:48:15.593Z,21.60
2023-01-27T16:50:43.934Z,21.60
2023-01-27T16:57:03.696Z,21.60
2023-01-27T16:59:34.250Z,21.60
2023-01-27T17:02:05.672Z,21.50
2023-01-27T17:04:33.086Z,21.60
2023-01-27T17:07:07.027Z,21.60
2023-01-27T17:09:41.183Z,21.60
2023-01-27T17:12:31.940Z,21.60
2023-01-27T17:14:59.963Z,21.60
2023-01-27T17:17:29.633Z,21.60
2023-01-27T17:20:02.716Z,21.60
2023-01-27T17:22:41.072Z,21.60
2023-01-27T17:25:30.172Z,21.60
2023-01-27T17:28:04.114Z,21.60
2023-01-27T17:30:39.581Z,21.60
2023-01-27T17:33:08.604Z,21.60
2023-01-27T17:35:41.052Z,21.60
2023-01-27T17:38:15.428Z,21.60
2023-01-27T17:40:44.965Z,21.60
2023-01-27T17:43:33.888Z,21.60
2023-01-27T17:46:14.730Z,21.60
2023-01-27T17:48:50.096Z,21.60
2023-01-27T17:51:24.633Z,21.60
2023-01-27T17:53:53.086Z,21.60
2023-01-27T17:56:24.589Z,21.60
2023-01-27T17:58:59.286Z,21.60
2023-01-27T18:01:26.764Z,21.60
2023-01-27T18:03:56.489Z,21.60
2023-01-27T18:06:26.582Z,21.60
2023-01-27T18:08:57.189Z,21.60
2023-01-27T18:11:31.381Z,21.60
2023-01-27T18:14:06.455Z,21.60
2023-01-27T18:16:33.698Z,21.60
2023-01-27T18:19:20.719Z,21.60
2023-01-27T18:21:48.355Z,21.60
2023-01-27T18:24:23.818Z,21.60
2023-01-27T18:26:51.100Z,21.60
2023-01-27T18:29:28.067Z,21.60
2023-01-27T18:32:17.246Z,21.60
2023-01-27T18:34:49.943Z,21.60
2023-01-27T18:37:26.590Z,21.60
2023-01-27T18:39:55.184Z,21.60
2023-01-27T18:42:27.713Z,21.60
2023-01-27T18:44:55.835Z,21.60
2023-01-27T18:47:35.947Z,21.60
2023-01-27T18:50:19.522Z,21.60
2023-01-27T18:52:47.373Z,21.60
2023-01-27T18:55:22.472Z,21.60
2023-01-27T18:57:52.301Z,21.60
2023-01-27T19:00:25.880Z,21.60
2023-01-27T19:02:57.247Z,21.60
2023-01-27T19:05:28.270Z,21.60
2023-01-27T19:07:55.360Z,21.60
2023-01-27T19:10:25.639Z,21.60
2023-01-27T19:12:53.563Z,21.60
2023-01-27T19:15:24.067Z,21.50
2023-01-27T19:17:53.772Z,21.60
2023-01-27T19:20:23.409Z,21.60
2023-01-27T19:22:52.106Z,21.50
2023-01-27T19:25:19.451Z,21.50
2023-01-27T19:27:50.049Z,21.50
2023-01-27T19:30:26.153Z,21.50
2023-01-27T19:32:55.278Z,21.50
2023-01-27T19:35:24.199Z,21.40
2023-01-27T19:37:54.167Z,21.40
2023-01-27T19:40:28.584Z,21.40
2023-01-27T19:42:56.342Z,21.40
2023-01-27T19:45:26.154Z,21.30
2023-01-27T19:47:53.191Z,21.30
2023-01-27T19:50:28.067Z,21.30
2023-01-27T19:52:55.336Z,21.30
2023-01-27T19:55:23.027Z,21.20
2023-01-27T19:57:51.647Z,21.20
2023-01-27T20:00:29.389Z,21.20
2023-01-27T20:02:57.273Z,21.20
2023-01-27T20:05:26.354Z,21.10
2023-01-27T20:07:55.473Z,21.10
2023-01-27T20:10:26.716Z,21.10
2023-01-27T20:12:56.714Z,21.10
2023-01-27T20:15:25.718Z,21.10
2023-01-27T20:17:53.476Z,21.10
2023-01-27T20:20:21.801Z,21.00
2023-01-27T20:22:49.200Z,21.00
2023-01-27T20:25:19.015Z,21.00
2023-01-27T20:27:48.986Z,21.00
2023-01-27T20:30:22.022Z,21.00
2023-01-27T20:32:49.139Z,21.00
2023-01-27T20:35:18.403Z,21.00
2023-01-27T20:37:47.688Z,20.90
2023-01-27T20:40:20.831Z,20.90
2023-01-27T20:42:48.663Z,20.90
2023-01-27T20:45:16.669Z,20.90
2023-01-27T20:47:47.881Z,20.90
2023-01-27T20:50:14.909Z,20.90
2023-01-27T20:52:41.937Z,20.90
2023-01-27T20:55:09.758Z,20.90
2023-01-27T20:57:37.004Z,20.90
2023-01-27T21:00:04.680Z,20.90
2023-01-27T21:02:31.828Z,20.90
2023-01-27T21:04:58.903Z,20.90
2023-01-27T21:07:26.464Z,20.90
2023-01-27T21:09:53.678Z,20.80
2023-01-27T21:12:21.866Z,20.80
2023-01-27T21:14:48.923Z,20.80
2023-01-27T21:17:16.519Z,20.80
2023-01-27T21:19:43.628Z,20.80
2023-01-27T21:22:10.718Z,20.80
2023-01-27T21:24:37.772Z,20.80
2023-01-27T21:27:05.052Z,20.80
2023-01-27T21:29:32.303Z,20.70
2023-01-27T21:31:59.608Z,20.80
2023-01-27T21:34:26.784Z,20.80
2023-01-27T21:36:55.987Z,20.80
2023-01-27T21:39:23.995Z,20.80
2023-01-27T21:42:10.900Z,20.70
2023-01-27T21:44:58.285Z,20.70
2023-01-27T21:47:25.389Z,20.70
2023-01-27T21:50:02.001Z,20.70
2023-01-27T21:52:35.396Z,20.70
2023-01-27T21:55:04.498Z,20.70
2023-01-27T21:57:32.271Z,20.60
2023-01-27T21:59:59.318Z,20.70
2023-01-27T22:02:26.460Z,20.70
2023-01-27T22:04:53.651Z,20.70
2023-01-27T22:07:21.003Z,20.70
2023-01-27T22:09:48.121Z,20.70
2023-01-27T22:12:16.520Z,20.70
2023-01-27T22:14:43.975Z,20.70
2023-01-27T22:17:11.214Z,20.60
2023-01-27T22:19:39.321Z,20.70
2023-01-27T22:22:09.804Z,20.60
2023-01-27T22:24:36.685Z,20.60
2023-01-27T22:27:03.974Z,20.60
2023-01-27T22:29:30.984Z,20.60
2023-01-27T22:31:58.056Z,20.60
2023-01-27T22:34:25.158Z,20.60
2023-01-27T22:36:52.352Z,20.60
2023-01-27T22:39:19.757Z,20.60
2023-01-27T22:41:47.827Z,20.60
2023-01-27T22:44:15.344Z,20.60
2023-01-27T22:46:43.083Z,20.60
2023-01-27T22:49:11.188Z,20.60
2023-01-27T22:51:38.803Z,20.60
2023-01-27T22:54:06.073Z,20.60
2023-01-27T22:56:33.471Z,20.60
2023-01-27T22:59:01.388Z,20.60
2023-01-27T23:01:29.036Z,20.60
2023-01-27T23:03:56.056Z,20.60
2023-01-27T23:06:23.115Z,20.60
2023-01-27T23:08:50.153Z,20.60
2023-01-27T23:11:17.187Z,20.60
2023-01-27T23:13:44.261Z,20.60
2023-01-27T23:16:11.290Z,20.60
2023-01-27T23:18:38.337Z,20.60
2023-01-27T23:21:08.336Z,20.60
2023-01-27T23:23:36.267Z,20.50
2023-01-27T23:26:07.385Z,20.60
2023-01-27T23:28:35.094Z,20.50
2023-01-27T23:31:02.332Z,20.50
2023-01-27T23:33:35.249Z,20.50
2023-01-27T23:36:02.340Z,20.50
2023-01-27T23:38:33.053Z,20.50
2023-01-27T23:41:02.528Z,20.50
2023-01-27T23:43:31.167Z,20.50
2023-01-27T23:45:58.607Z,20.50
2023-01-27T23:48:26.254Z,20.50
2023-01-27T23:50:53.282Z,20.50
2023-01-27T23:53:20.671Z,20.50
2023-01-27T23:55:58.530Z,20.50
2023-01-27T23:58:26.724Z,20.50
